Time;durP1;ratioP1;P1;durP2;ratioP2;P2;SDS_P1;SDS_P2;PMS_P1;PMS_P2;Temp;Humidity;BMP_temperature;BMP_pressure;BME280_temperature;BME280_humidity;BME280_pressure;Samples;Min_cycle;Max_cycle;Signal;HPM_P1;HPM_P2
2022/07/27 00:01:25;;;;;;;14.20;9.73;;;18.90;99.90;;;;;;4968305;28;20239;-70
2022/07/27 00:04:13;;;;;;;14.02;9.05;;;19.00;99.90;;;;;;4982117;28;20238;-71
2022/07/27 00:07:03;;;;;;;12.13;8.23;;;19.00;99.90;;;;;;4981041;28;20223;-69
2022/07/27 00:09:52;;;;;;;10.80;8.65;;;19.10;99.90;;;;;;4982052;28;20236;-71
2022/07/27 00:12:41;;;;;;;14.25;8.32;;;19.10;99.90;;;;;;4986053;28;20227;-70
2022/07/27 00:15:30;;;;;;;9.82;7.65;;;18.90;99.90;;;;;;4988066;28;20231;-70
2022/07/27 00:18:19;;;;;;;18.45;7.43;;;19.00;99.90;;;;;;4968755;28;20750;-71
2022/07/27 00:21:08;;;;;;;9.95;7.10;;;18.90;99.90;;;;;;4980188;28;20230;-72
2022/07/27 00:23:58;;;;;;;12.30;6.35;;;18.80;99.90;;;;;;4970363;28;20224;-71
2022/07/27 00:26:46;;;;;;;15.75;6.07;;;18.80;99.90;;;;;;4989583;28;20257;-67
2022/07/27 00:29:35;;;;;;;8.95;5.25;;;18.80;99.90;;;;;;4973273;28;20583;-70
2022/07/27 00:32:24;;;;;;;9.38;5.60;;;18.80;99.90;;;;;;4970809;28;20230;-71
2022/07/27 00:35:12;;;;;;;8.13;5.60;;;18.70;99.90;;;;;;4986449;28;20222;-71
2022/07/27 00:38:01;;;;;;;13.07;6.40;;;18.70;99.90;;;;;;4970964;28;20455;-70
2022/07/27 00:40:51;;;;;;;8.73;5.18;;;18.60;99.90;;;;;;4979323;28;20230;-71
2022/07/27 00:43:53;;;;;;;9.48;5.40;;;18.50;99.90;;;;;;4985678;28;20233;-71
2022/07/27 00:46:42;;;;;;;6.50;5.30;;;18.60;99.90;;;;;;4980177;28;20226;-67
2022/07/27 00:49:30;;;;;;;8.00;4.90;;;18.50;99.90;;;;;;4982194;28;20245;-69
2022/07/27 00:52:21;;;;;;;7.43;4.90;;;18.50;99.90;;;;;;4981305;28;20218;-71
2022/07/27 00:55:10;;;;;;;6.80;4.72;;;18.50;99.90;;;;;;4985599;28;20236;-71
2022/07/27 00:58:00;;;;;;;9.70;4.78;;;18.50;99.90;;;;;;4987592;28;20231;-68
2022/07/27 01:00:49;;;;;;;10.48;5.00;;;18.40;99.90;;;;;;4982044;28;20219;-70
2022/07/27 01:03:37;;;;;;;11.98;4.85;;;18.40;99.90;;;;;;4966002;28;20801;-69
2022/07/27 01:06:27;;;;;;;6.97;4.70;;;18.40;99.90;;;;;;4985824;28;20264;-71
2022/07/27 01:12:22;;;;;;;7.47;4.35;;;18.40;99.90;;;;;;4971141;28;20226;-69
2022/07/27 01:15:16;;;;;;;7.35;4.65;;;18.50;99.90;;;;;;4974221;28;20234;-71
2022/07/27 01:18:10;;;;;;;5.68;4.05;;;18.50;99.90;;;;;;4982073;28;20250;-70
2022/07/27 01:21:00;;;;;;;8.77;4.50;;;18.60;99.90;;;;;;4985070;28;20222;-69
2022/07/27 01:23:50;;;;;;;7.07;4.43;;;18.50;99.90;;;;;;4980045;28;20223;-70
2022/07/27 01:26:39;;;;;;;8.70;4.15;;;18.40;99.90;;;;;;4966234;28;20238;-70
2022/07/27 01:29:28;;;;;;;8.98;4.72;;;18.40;99.90;;;;;;4986674;28;20601;-69
2022/07/27 01:32:16;;;;;;;7.07;3.92;;;18.30;99.90;;;;;;4982592;28;20230;-70
2022/07/27 01:35:06;;;;;;;7.43;4.00;;;18.30;99.90;;;;;;4981121;28;20746;-69
2022/07/27 01:37:54;;;;;;;5.90;4.03;;;18.40;99.90;;;;;;4981118;28;20236;-69
2022/07/27 01:40:44;;;;;;;7.10;4.22;;;18.40;99.90;;;;;;4982789;28;20231;-69
2022/07/27 01:43:33;;;;;;;8.02;4.35;;;18.40;99.90;;;;;;4975147;28;20225;-69
2022/07/27 01:46:22;;;;;;;8.05;3.95;;;18.50;99.90;;;;;;4988440;28;20218;-69
2022/07/27 01:49:11;;;;;;;7.05;4.18;;;18.40;99.90;;;;;;4985623;28;20241;-69
2022/07/27 01:52:00;;;;;;;5.97;3.50;;;18.40;99.90;;;;;;4987193;28;20249;-72
2022/07/27 01:54:49;;;;;;;5.53;3.60;;;18.40;99.90;;;;;;4988444;28;20226;-71
2022/07/27 01:57:39;;;;;;;6.28;3.80;;;18.50;99.90;;;;;;4963843;28;20314;-71
2022/07/27 02:00:28;;;;;;;9.05;3.35;;;18.50;99.90;;;;;;4970037;28;20238;-71
2022/07/27 02:03:17;;;;;;;7.90;3.45;;;18.30;99.90;;;;;;4964194;28;20234;-72
2022/07/27 02:06:05;;;;;;;5.10;3.20;;;18.40;99.90;;;;;;4964958;28;20215;-71
2022/07/27 02:08:54;;;;;;;4.32;3.00;;;18.30;99.90;;;;;;4956753;28;20234;-70
2022/07/27 02:14:50;;;;;;;3.85;2.63;;;18.30;99.90;;;;;;4964074;28;20302;-71
2022/07/27 02:17:40;;;;;;;9.13;3.08;;;18.30;99.90;;;;;;4966448;28;20230;-69
2022/07/27 02:20:30;;;;;;;5.80;2.72;;;18.20;99.90;;;;;;4965507;28;20250;-71
2022/07/27 02:23:20;;;;;;;5.78;3.00;;;18.20;99.90;;;;;;4966284;28;20224;-69
2022/07/27 02:26:09;;;;;;;4.68;2.97;;;18.30;99.90;;;;;;4947308;28;20752;-72
2022/07/27 02:28:58;;;;;;;5.63;3.05;;;18.20;99.90;;;;;;4964731;28;20240;-70
2022/07/27 02:31:48;;;;;;;7.13;2.70;;;18.10;99.90;;;;;;4960548;28;20220;-71
2022/07/27 02:34:36;;;;;;;3.50;2.88;;;18.00;99.90;;;;;;4962124;28;20232;-71
2022/07/27 02:37:25;;;;;;;7.15;2.95;;;17.90;99.90;;;;;;4956384;28;20230;-71
2022/07/27 02:40:17;;;;;;;5.72;3.00;;;18.00;99.90;;;;;;4952397;28;20219;-71
2022/07/27 02:43:06;;;;;;;5.68;2.65;;;18.00;99.90;;;;;;4948332;28;20235;-71
2022/07/27 02:45:54;;;;;;;5.65;3.08;;;18.00;99.90;;;;;;4958889;28;20230;-71
2022/07/27 02:48:44;;;;;;;4.43;2.92;;;18.00;99.90;;;;;;4955216;28;20220;-71
2022/07/27 02:51:33;;;;;;;7.40;2.80;;;18.10;99.90;;;;;;4957877;28;20294;-71
2022/07/27 02:54:23;;;;;;;5.70;2.90;;;18.10;99.90;;;;;;4962835;28;20228;-71
2022/07/27 02:57:12;;;;;;;4.35;2.40;;;18.10;99.90;;;;;;4958620;28;20755;-71
2022/07/27 03:00:01;;;;;;;7.00;2.70;;;18.20;99.90;;;;;;4955494;28;20228;-72
2022/07/27 03:02:50;;;;;;;7.03;2.70;;;18.20;99.90;;;;;;4982153;28;20604;-71
2022/07/27 03:05:40;;;;;;;5.60;2.30;;;18.10;99.90;;;;;;4972241;28;20219;-71
2022/07/27 03:08:28;;;;;;;6.30;2.15;;;18.20;99.90;;;;;;4981498;28;20243;-71
2022/07/27 03:11:17;;;;;;;5.85;2.38;;;18.20;99.90;;;;;;4986471;28;20321;-70
2022/07/27 03:14:05;;;;;;;5.35;2.50;;;18.30;99.90;;;;;;4980361;28;20234;-71
2022/07/27 03:16:54;;;;;;;5.50;2.63;;;18.30;99.90;;;;;;4983391;28;20225;-71
2022/07/27 03:19:43;;;;;;;5.28;2.80;;;18.30;99.90;;;;;;4974675;28;20219;-70
2022/07/27 03:22:33;;;;;;;7.10;2.83;;;18.20;99.90;;;;;;4983172;28;20599;-71
2022/07/27 03:25:21;;;;;;;9.85;3.15;;;18.30;99.90;;;;;;4987020;28;20230;-70
2022/07/27 03:28:10;;;;;;;6.68;3.28;;;18.30;99.90;;;;;;4985087;28;20745;-71
2022/07/27 03:30:59;;;;;;;10.55;3.05;;;18.30;99.90;;;;;;4983979;28;20218;-70
2022/07/27 03:33:48;;;;;;;5.32;2.60;;;18.30;99.90;;;;;;4986051;28;20223;-70
2022/07/27 03:36:37;;;;;;;4.97;2.50;;;18.30;99.90;;;;;;4984055;28;20948;-71
2022/07/27 03:39:27;;;;;;;3.45;2.13;;;18.30;99.90;;;;;;4986036;28;20242;-71
2022/07/27 03:42:15;;;;;;;5.82;2.42;;;18.30;99.90;;;;;;4964817;28;20249;-72
2022/07/27 03:45:05;;;;;;;3.17;2.05;;;18.20;99.90;;;;;;4982405;28;20223;-70
2022/07/27 03:47:56;;;;;;;5.20;2.67;;;18.20;99.90;;;;;;4983198;28;20235;-72
2022/07/27 03:50:44;;;;;;;4.43;2.28;;;18.10;99.90;;;;;;4986346;28;20211;-71
2022/07/27 03:53:33;;;;;;;5.03;2.22;;;18.20;99.90;;;;;;4984293;28;20230;-71
2022/07/27 03:56:23;;;;;;;4.00;2.03;;;18.10;99.90;;;;;;4983817;28;20223;-71
2022/07/27 03:59:11;;;;;;;5.10;2.60;;;18.20;99.90;;;;;;4984826;28;20227;-71
2022/07/27 04:02:00;;;;;;;3.20;1.83;;;18.10;99.90;;;;;;4958088;28;20235;-71
2022/07/27 04:04:49;;;;;;;4.65;1.60;;;18.30;99.90;;;;;;4959741;28;20278;-68
2022/07/27 04:07:38;;;;;;;3.97;1.98;;;18.20;99.90;;;;;;4962063;28;20227;-70
2022/07/27 04:10:26;;;;;;;5.70;2.10;;;18.20;99.90;;;;;;4951125;28;20585;-70
2022/07/27 04:13:20;;;;;;;4.78;1.83;;;18.20;99.90;;;;;;4964354;28;20223;-71
2022/07/27 04:16:09;;;;;;;5.75;1.90;;;18.10;99.90;;;;;;4964242;28;20218;-70
2022/07/27 04:18:58;;;;;;;5.82;2.05;;;18.00;99.90;;;;;;4961375;28;20234;-72
2022/07/27 04:21:47;;;;;;;5.50;1.85;;;18.00;99.90;;;;;;4959503;28;20696;-72
2022/07/27 04:24:35;;;;;;;4.22;1.83;;;18.00;99.90;;;;;;4951907;28;20235;-71
2022/07/27 04:27:24;;;;;;;6.03;1.98;;;18.00;99.90;;;;;;4966903;28;20247;-68
2022/07/27 04:30:14;;;;;;;6.95;1.98;;;17.90;99.90;;;;;;4960179;28;20228;-69
2022/07/27 04:33:04;;;;;;;6.07;1.95;;;17.90;99.90;;;;;;4959586;28;20245;-70
2022/07/27 04:35:52;;;;;;;3.85;1.52;;;18.10;99.90;;;;;;4944057;28;20238;-70
2022/07/27 04:38:41;;;;;;;6.05;1.67;;;18.40;99.90;;;;;;4963806;28;20238;-70
2022/07/27 04:41:29;;;;;;;9.75;1.88;;;18.50;99.90;;;;;;4963056;28;20238;-69
2022/07/27 04:44:18;;;;;;;5.93;1.90;;;18.40;99.90;;;;;;4953094;28;20230;-68
2022/07/27 04:47:08;;;;;;;5.32;1.80;;;18.30;99.90;;;;;;4967526;28;20593;-69
2022/07/27 04:49:56;;;;;;;7.72;1.70;;;18.30;99.90;;;;;;4959939;28;20230;-69
2022/07/27 04:52:48;;;;;;;6.90;1.77;;;18.30;99.90;;;;;;4945747;28;20880;-70
2022/07/27 04:55:37;;;;;;;4.78;2.00;;;18.30;99.90;;;;;;4963143;28;20223;-72
2022/07/27 04:58:26;;;;;;;6.10;1.88;;;18.20;99.90;;;;;;4944751;28;20235;-69
2022/07/27 05:01:14;;;;;;;3.85;1.88;;;18.20;99.90;;;;;;4961438;28;20235;-71
2022/07/27 05:04:04;;;;;;;7.88;1.98;;;18.20;99.90;;;;;;4959919;28;20228;-68
2022/07/27 05:06:53;;;;;;;13.18;2.40;;;18.20;99.90;;;;;;4961209;28;20330;-70
2022/07/27 05:09:42;;;;;;;6.30;1.70;;;18.40;99.90;;;;;;4961079;28;20596;-71
2022/07/27 05:12:31;;;;;;;8.23;1.80;;;18.60;99.90;;;;;;4963542;28;20871;-71
2022/07/27 05:15:20;;;;;;;4.47;1.45;;;18.70;99.90;;;;;;4965073;28;21065;-70
2022/07/27 05:18:08;;;;;;;5.18;1.70;;;18.70;99.90;;;;;;4962656;28;20227;-71
2022/07/27 05:20:58;;;;;;;7.25;1.92;;;18.90;99.90;;;;;;4958093;28;20375;-70
2022/07/27 05:23:47;;;;;;;4.07;1.50;;;19.10;99.90;;;;;;4966797;28;20227;-68
2022/07/27 05:26:36;;;;;;;5.30;1.90;;;19.20;99.90;;;;;;4949708;28;20698;-70
2022/07/27 05:29:25;;;;;;;3.10;1.58;;;19.20;99.90;;;;;;4961905;28;20228;-67
2022/07/27 05:32:13;;;;;;;6.85;1.50;;;19.30;99.90;;;;;;4949627;28;20228;-69
2022/07/27 05:35:03;;;;;;;6.32;1.40;;;19.50;99.90;;;;;;4959917;28;20326;-70
2022/07/27 05:37:53;;;;;;;4.15;1.33;;;19.70;99.90;;;;;;4963257;28;20227;-70
2022/07/27 05:40:44;;;;;;;5.38;1.50;;;20.00;99.90;;;;;;4960505;28;20227;-73
2022/07/27 05:43:32;;;;;;;5.45;1.40;;;20.40;99.90;;;;;;4961011;28;20228;-71
2022/07/27 05:46:22;;;;;;;7.35;1.80;;;20.20;99.90;;;;;;4965759;28;20227;-72
2022/07/27 05:49:10;;;;;;;6.70;1.67;;;19.90;99.90;;;;;;4959428;28;20232;-71
2022/07/27 05:52:00;;;;;;;10.05;2.13;;;19.90;99.90;;;;;;4964097;28;20240;-72
2022/07/27 05:54:50;;;;;;;7.63;2.35;;;19.90;99.90;;;;;;4947853;28;20339;-70
2022/07/27 05:57:39;;;;;;;6.30;2.50;;;20.00;99.90;;;;;;4942377;28;20306;-71
2022/07/27 06:00:28;;;;;;;9.65;1.90;;;20.10;99.90;;;;;;4963869;28;20235;-74
2022/07/27 06:03:17;;;;;;;7.65;1.90;;;20.80;99.90;;;;;;4960794;28;20274;-71
2022/07/27 06:09:24;;;;;;;5.50;1.65;;;22.60;99.90;;;;;;4933172;28;20231;-73
2022/07/27 06:12:14;;;;;;;8.38;1.77;;;21.90;99.90;;;;;;4943003;28;20302;-73
2022/07/27 06:15:02;;;;;;;6.70;1.85;;;22.20;99.90;;;;;;4958803;28;20227;-71
2022/07/27 06:17:52;;;;;;;6.00;1.40;;;21.70;99.90;;;;;;4955821;28;20364;-72
2022/07/27 06:20:42;;;;;;;11.10;1.48;;;21.40;99.90;;;;;;4955392;28;20220;-72
2022/07/27 06:23:30;;;;;;;6.38;1.40;;;21.20;99.90;;;;;;4963925;28;20707;-71
2022/07/27 06:26:19;;;;;;;3.30;1.40;;;21.00;99.90;;;;;;4955422;28;20887;-72
2022/07/27 06:29:09;;;;;;;6.25;1.23;;;20.70;99.90;;;;;;4961630;28;20227;-71
2022/07/27 06:31:58;;;;;;;9.15;1.35;;;20.70;99.90;;;;;;4964238;28;20690;-72
2022/07/27 06:34:49;;;;;;;10.32;1.77;;;20.50;99.90;;;;;;4959579;28;20352;-71
2022/07/27 06:37:42;;;;;;;9.75;1.85;;;20.70;99.90;;;;;;4966766;28;20723;-71
2022/07/27 06:40:32;;;;;;;8.02;1.27;;;20.80;99.90;;;;;;4960657;28;20232;-71
2022/07/27 06:43:21;;;;;;;7.97;1.63;;;20.60;99.90;;;;;;4951118;28;20242;-72
2022/07/27 06:46:11;;;;;;;11.77;1.60;;;20.90;99.90;;;;;;4961782;28;20219;-72
2022/07/27 06:49:00;;;;;;;6.18;1.33;;;21.00;99.90;;;;;;4964398;28;20215;-71
2022/07/27 06:51:49;;;;;;;6.60;1.60;;;21.20;99.90;;;;;;4961084;28;21083;-71
2022/07/27 06:54:37;;;;;;;5.72;1.67;;;21.20;99.90;;;;;;4962783;28;20223;-71
2022/07/27 06:57:26;;;;;;;11.63;1.50;;;21.20;99.90;;;;;;4959050;28;20227;-73
2022/07/27 07:00:15;;;;;;;7.68;1.35;;;21.30;99.90;;;;;;4963520;28;20220;-71
2022/07/27 07:03:06;;;;;;;6.82;1.58;;;21.40;99.90;;;;;;4962630;28;20287;-71
2022/07/27 07:05:55;;;;;;;8.23;1.58;;;21.50;99.90;;;;;;4963013;28;20235;-71
2022/07/27 07:08:43;;;;;;;4.45;2.05;;;21.50;99.90;;;;;;4960957;28;20293;-70
2022/07/27 07:11:32;;;;;;;6.97;1.50;;;21.70;99.90;;;;;;4959974;28;20261;-71
2022/07/27 07:14:21;;;;;;;6.57;1.88;;;21.80;99.90;;;;;;4964561;28;20224;-69
2022/07/27 07:17:10;;;;;;;10.20;2.40;;;21.80;99.90;;;;;;4963516;28;20573;-71
2022/07/27 07:20:00;;;;;;;6.70;1.95;;;21.90;99.90;;;;;;4946478;28;20581;-71
2022/07/27 07:22:49;;;;;;;8.23;1.90;;;22.20;99.90;;;;;;4961243;28;20830;-75
2022/07/27 07:25:39;;;;;;;5.55;1.90;;;22.30;99.20;;;;;;4951486;28;20249;-76
2022/07/27 07:28:28;;;;;;;8.82;2.40;;;22.50;97.10;;;;;;4954325;28;20235;-78
2022/07/27 07:31:18;;;;;;;6.47;2.20;;;22.70;98.00;;;;;;4959443;28;20787;-78
2022/07/27 07:34:07;;;;;;;10.50;2.53;;;22.70;94.90;;;;;;4966635;28;20236;-78
2022/07/27 07:36:57;;;;;;;7.03;2.20;;;23.00;93.70;;;;;;4959600;28;20248;-77
2022/07/27 07:39:46;;;;;;;9.18;2.55;;;23.30;92.70;;;;;;4962829;28;20331;-76
2022/07/27 07:42:49;;;;;;;8.15;2.30;;;23.60;92.40;;;;;;4945970;28;20542;-76
2022/07/27 07:45:38;;;;;;;7.07;2.35;;;24.00;91.40;;;;;;4956028;28;20224;-78
2022/07/27 07:48:38;;;;;;;8.20;2.20;;;24.00;89.60;;;;;;4955693;28;20903;-76
2022/07/27 07:51:27;;;;;;;7.03;2.40;;;24.20;90.60;;;;;;4959433;28;20595;-77
2022/07/27 07:54:17;;;;;;;4.97;2.03;;;24.50;88.50;;;;;;4959714;28;20228;-77
2022/07/27 07:57:06;;;;;;;6.28;2.30;;;24.70;88.20;;;;;;4963175;28;20246;-79
2022/07/27 07:59:54;;;;;;;5.60;2.05;;;25.00;84.20;;;;;;4954959;28;20258;-78
2022/07/27 08:02:45;;;;;;;9.23;2.15;;;25.70;82.30;;;;;;4958512;28;21037;-77
2022/07/27 08:05:34;;;;;;;5.15;2.40;;;26.20;81.00;;;;;;4957855;28;20223;-78
2022/07/27 08:08:23;;;;;;;6.45;1.80;;;26.60;76.60;;;;;;4945883;28;20231;-77
2022/07/27 08:11:14;;;;;;;5.03;2.40;;;26.90;76.20;;;;;;4956469;28;20227;-77
2022/07/27 08:14:03;;;;;;;4.78;2.13;;;27.10;76.10;;;;;;4958227;28;20228;-78
2022/07/27 08:16:52;;;;;;;6.00;2.20;;;27.30;74.50;;;;;;4960806;28;20234;-77
2022/07/27 08:19:41;;;;;;;6.68;2.58;;;27.10;73.00;;;;;;4948235;28;20219;-77
2022/07/27 08:22:29;;;;;;;4.97;2.15;;;27.60;72.70;;;;;;4958673;28;20223;-77
2022/07/27 08:25:18;;;;;;;4.93;1.95;;;27.80;72.40;;;;;;4953543;28;20226;-75
2022/07/27 08:28:08;;;;;;;5.40;2.40;;;28.20;70.60;;;;;;4966821;28;20242;-77
2022/07/27 08:30:57;;;;;;;9.10;2.13;;;28.40;70.90;;;;;;4966212;28;20587;-78
2022/07/27 08:33:46;;;;;;;6.47;2.17;;;28.80;69.50;;;;;;4958698;28;20234;-78
2022/07/27 08:36:35;;;;;;;9.02;2.50;;;28.80;68.80;;;;;;4965392;28;21110;-78
2022/07/27 08:39:24;;;;;;;4.70;2.15;;;29.20;67.50;;;;;;4965720;28;20227;-77
2022/07/27 08:42:33;;;;;;;5.60;2.40;;;29.10;68.90;;;;;;4962703;28;20222;-76
2022/07/27 08:45:23;;;;;;;4.28;1.75;;;29.30;66.20;;;;;;4964486;28;20218;-73
2022/07/27 08:48:13;;;;;;;4.85;1.98;;;29.50;66.60;;;;;;4957577;28;20241;-76
2022/07/27 08:51:02;;;;;;;5.60;2.33;;;29.70;65.30;;;;;;4959994;28;20222;-78
2022/07/27 08:53:51;;;;;;;4.30;1.80;;;30.30;65.80;;;;;;4948658;28;20227;-77
2022/07/27 08:56:42;;;;;;;5.32;2.28;;;30.50;64.00;;;;;;4962432;28;20248;-77
2022/07/27 08:59:31;;;;;;;9.18;2.00;;;30.60;62.00;;;;;;4956172;28;20231;-77
2022/07/27 09:02:23;;;;;;;2.78;1.70;;;31.30;60.30;;;;;;4962481;28;20268;-78
2022/07/27 09:05:12;;;;;;;5.15;1.80;;;31.90;59.00;;;;;;4960781;28;20690;-81
2022/07/27 09:08:10;;;;;;;4.32;1.75;;;32.10;58.60;;;;;;4951527;28;20219;-78
2022/07/27 09:11:02;;;;;;;5.40;1.63;;;31.20;60.90;;;;;;4963260;28;20318;-77
2022/07/27 09:14:02;;;;;;;5.72;2.55;;;32.60;56.00;;;;;;4961596;28;20230;-77
2022/07/27 09:16:51;;;;;;;3.85;1.73;;;33.80;55.50;;;;;;4959227;28;20695;-77
2022/07/27 09:20:03;;;;;;;4.03;1.80;;;33.80;55.20;;;;;;4945149;28;20229;-75
2022/07/27 09:22:54;;;;;;;5.07;1.80;;;33.70;55.70;;;;;;4959334;28;20227;-76
2022/07/27 09:25:43;;;;;;;4.78;1.80;;;34.90;55.00;;;;;;4954277;28;20216;-76
2022/07/27 09:28:54;;;;;;;8.48;2.03;;;35.60;51.90;;;;;;4959110;28;20674;-76
2022/07/27 09:31:44;;;;;;;6.63;1.70;;;34.70;52.80;;;;;;4950726;28;20361;-75
2022/07/27 09:34:35;;;;;;;4.50;1.77;;;31.90;54.90;;;;;;4948409;28;20844;-76
2022/07/27 09:37:27;;;;;;;2.83;1.67;;;32.10;58.00;;;;;;4958549;28;20707;-76
2022/07/27 09:40:18;;;;;;;2.65;1.35;;;33.90;54.90;;;;;;4951454;28;20608;-75
2022/07/27 09:43:14;;;;;;;6.78;1.73;;;35.20;53.70;;;;;;4948448;28;20640;-76
2022/07/27 09:46:34;;;;;;;5.45;1.70;;;32.60;54.20;;;;;;4946581;28;20232;-74
2022/07/27 09:49:30;;;;;;;6.60;1.67;;;31.30;56.70;;;;;;4957030;28;20227;-76
2022/07/27 09:52:23;;;;;;;5.72;1.88;;;33.10;56.90;;;;;;4952588;28;20258;-77
2022/07/27 09:55:13;;;;;;;6.97;1.67;;;35.40;54.70;;;;;;4952675;28;20598;-78
2022/07/27 09:58:02;;;;;;;5.18;1.40;;;36.00;51.50;;;;;;4962580;28;20237;-78
2022/07/27 10:00:56;;;;;;;8.10;1.42;;;35.70;50.50;;;;;;4964755;28;20278;-77
2022/07/27 10:03:47;;;;;;;10.68;1.80;;;34.60;52.40;;;;;;4952695;28;20291;-75
2022/07/27 10:06:36;;;;;;;8.80;2.15;;;35.20;51.40;;;;;;4961690;28;20215;-75
2022/07/27 10:09:45;;;;;;;8.40;1.40;;;33.40;52.80;;;;;;4972644;28;20270;-75
2022/07/27 10:12:35;;;;;;;6.18;1.70;;;32.30;55.00;;;;;;4964021;28;20229;-76
2022/07/27 10:15:25;;;;;;;8.38;1.60;;;32.30;57.10;;;;;;4963833;28;20724;-75
2022/07/27 10:18:33;;;;;;;4.28;1.50;;;31.50;56.90;;;;;;4966642;28;20998;-77
2022/07/27 10:21:25;;;;;;;7.25;1.70;;;30.50;59.70;;;;;;4968730;28;20277;-74
2022/07/27 10:24:27;;;;;;;4.72;1.33;;;31.10;59.50;;;;;;4963964;28;20227;-76
2022/07/27 10:27:20;;;;;;;7.97;1.42;;;30.50;58.80;;;;;;4949605;28;20231;-74
2022/07/27 10:30:13;;;;;;;5.55;1.75;;;32.10;58.80;;;;;;4965428;28;20572;-75
2022/07/27 10:33:12;;;;;;;3.65;1.40;;;31.90;59.60;;;;;;4962528;28;20219;-75
2022/07/27 10:36:02;;;;;;;3.88;1.55;;;32.60;56.10;;;;;;4959747;28;20223;-76
2022/07/27 10:38:55;;;;;;;5.82;1.85;;;33.20;57.00;;;;;;4960011;28;20922;-77
2022/07/27 10:41:43;;;;;;;6.30;1.58;;;33.30;55.70;;;;;;4963143;28;20229;-75
2022/07/27 10:44:32;;;;;;;8.00;1.98;;;32.70;54.90;;;;;;4965719;28;20723;-77
2022/07/27 10:47:32;;;;;;;7.90;1.45;;;32.70;57.00;;;;;;4961151;28;21079;-75
2022/07/27 10:50:31;;;;;;;2.97;1.50;;;33.30;54.10;;;;;;4966013;28;20252;-75
2022/07/27 10:53:33;;;;;;;4.65;1.55;;;34.60;54.60;;;;;;4965845;28;20234;-75
2022/07/27 10:56:46;;;;;;;3.65;1.60;;;34.60;52.00;;;;;;4969023;28;20231;-75
2022/07/27 10:59:50;;;;;;;6.07;1.80;;;35.20;52.50;;;;;;4958358;28;20220;-76
2022/07/27 11:02:58;;;;;;;6.53;1.80;;;34.20;51.60;;;;;;4960021;28;20219;-74
2022/07/27 11:05:54;;;;;;;6.70;1.50;;;32.70;53.70;;;;;;4961756;28;20223;-78
2022/07/27 11:09:01;;;;;;;4.93;1.77;;;31.60;57.20;;;;;;4961645;28;20226;-74
2022/07/27 11:12:11;;;;;;;11.75;1.83;;;33.20;56.10;;;;;;4960261;28;20220;-77
2022/07/27 11:15:01;;;;;;;3.53;2.15;;;35.00;52.70;;;;;;4964849;28;20998;-75
2022/07/27 11:17:50;;;;;;;4.82;1.40;;;35.10;50.60;;;;;;4950814;28;20215;-75
2022/07/27 11:20:50;;;;;;;3.38;1.45;;;34.30;51.30;;;;;;4962422;28;20226;-75
2022/07/27 11:23:39;;;;;;;38.78;5.78;;;35.30;49.60;;;;;;4965548;28;20221;-75
2022/07/27 11:26:41;;;;;;;6.82;2.00;;;35.20;51.10;;;;;;4958748;28;20223;-75
2022/07/27 11:29:35;;;;;;;6.20;1.73;;;33.60;51.70;;;;;;4961387;28;20239;-75
2022/07/27 11:32:36;;;;;;;6.82;1.85;;;33.20;53.00;;;;;;4963345;28;20813;-76
2022/07/27 11:35:24;;;;;;;6.28;1.75;;;31.80;54.90;;;;;;4957019;28;20945;-75
2022/07/27 11:38:15;;;;;;;5.38;1.90;;;31.10;56.00;;;;;;4952146;28;20254;-75
2022/07/27 11:41:03;;;;;;;7.15;1.60;;;30.30;58.50;;;;;;4959572;28;20244;-75
2022/07/27 11:44:12;;;;;;;4.72;1.85;;;29.90;59.40;;;;;;4964918;28;20243;-75
2022/07/27 11:47:03;;;;;;;6.03;1.67;;;29.90;60.20;;;;;;4962860;28;20215;-76
2022/07/27 11:49:52;;;;;;;5.30;1.75;;;29.30;60.20;;;;;;4960967;28;20234;-74
2022/07/27 11:52:41;;;;;;;7.40;1.67;;;29.20;60.00;;;;;;4961628;28;20226;-78
2022/07/27 11:55:31;;;;;;;6.32;1.50;;;28.80;61.60;;;;;;4961877;28;20301;-78
2022/07/27 11:58:20;;;;;;;5.70;1.50;;;28.50;62.60;;;;;;4961418;28;20312;-75
2022/07/27 12:01:08;;;;;;;8.75;1.73;;;29.40;61.00;;;;;;4952160;28;20239;-74
2022/07/27 12:04:12;;;;;;;6.07;2.17;;;29.50;60.70;;;;;;4959040;28;20724;-75
2022/07/27 12:07:04;;;;;;;2.75;1.55;;;28.80;63.00;;;;;;4958519;28;20233;-75
2022/07/27 12:09:55;;;;;;;7.82;2.05;;;29.80;61.10;;;;;;4964509;28;20219;-75
2022/07/27 12:12:49;;;;;;;11.93;1.90;;;28.90;63.30;;;;;;4952666;28;20219;-76
2022/07/27 12:15:38;;;;;;;5.68;1.60;;;30.30;60.00;;;;;;4958590;28;20313;-76
2022/07/27 12:18:42;;;;;;;4.70;1.70;;;32.60;57.10;;;;;;4955831;28;20731;-75
2022/07/27 12:21:31;;;;;;;5.47;1.60;;;34.30;52.20;;;;;;4941761;28;20803;-75
2022/07/27 12:24:30;;;;;;;9.38;1.55;;;35.50;50.30;;;;;;4947333;28;21244;-77
2022/07/27 12:27:20;;;;;;;3.50;1.13;;;35.90;49.70;;;;;;4949586;28;20334;-76
2022/07/27 12:30:12;;;;;;;7.55;1.23;;;33.60;53.40;;;;;;4950766;28;20219;-77
2022/07/27 12:33:01;;;;;;;7.05;1.48;;;33.20;51.60;;;;;;4970051;28;20222;-76
2022/07/27 12:35:50;;;;;;;7.85;1.65;;;31.10;55.10;;;;;;4964173;28;20219;-76
2022/07/27 12:38:42;;;;;;;4.05;1.35;;;29.90;59.70;;;;;;4953846;28;20704;-76
2022/07/27 12:41:35;;;;;;;8.68;1.33;;;29.30;61.10;;;;;;4962039;28;20750;-77
2022/07/27 12:44:32;;;;;;;5.75;1.20;;;28.70;62.90;;;;;;4961718;28;20318;-78
2022/07/27 12:47:40;;;;;;;4.00;1.38;;;28.60;62.80;;;;;;4936569;28;20238;-75
2022/07/27 12:50:29;;;;;;;3.40;1.60;;;28.50;63.70;;;;;;4962884;28;20234;-75
2022/07/27 12:53:22;;;;;;;2.35;1.23;;;28.10;64.10;;;;;;4963310;28;20226;-75
2022/07/27 12:56:10;;;;;;;3.42;1.23;;;27.90;65.00;;;;;;4954575;28;20595;-75
2022/07/27 12:59:00;;;;;;;2.70;1.17;;;27.40;65.90;;;;;;4959099;28;20226;-75
2022/07/27 13:01:49;;;;;;;5.45;1.60;;;27.20;66.80;;;;;;4969880;28;20223;-75
2022/07/27 13:04:41;;;;;;;6.57;1.48;;;26.80;68.30;;;;;;4978242;28;20324;-76
2022/07/27 13:07:30;;;;;;;5.82;1.60;;;;;;;;;;4980040;28;20325;-74
2022/07/27 13:10:20;;;;;;;4.53;1.60;;;26.60;67.60;;;;;;4983084;28;20228;-74
2022/07/27 13:13:09;;;;;;;4.82;1.77;;;26.90;68.50;;;;;;4980371;28;20238;-72
2022/07/27 13:15:57;;;;;;;6.45;1.30;;;26.70;68.50;;;;;;4982173;28;20234;-74
2022/07/27 13:18:46;;;;;;;3.45;1.30;;;26.50;69.80;;;;;;4978817;28;20598;-73
2022/07/27 13:21:36;;;;;;;12.15;1.80;;;26.60;68.60;;;;;;4976549;28;20234;-77
2022/07/27 13:24:25;;;;;;;5.43;1.38;;;26.50;69.50;;;;;;4968712;28;20233;-75
2022/07/27 13:27:13;;;;;;;4.60;1.20;;;26.50;70.30;;;;;;4972681;28;20459;-75
2022/07/27 13:30:03;;;;;;;6.50;1.35;;;26.40;68.60;;;;;;4973603;28;20734;-76
2022/07/27 13:32:52;;;;;;;13.98;1.80;;;26.40;70.60;;;;;;4976912;28;20231;-74
2022/07/27 13:35:41;;;;;;;9.07;1.50;;;26.50;69.50;;;;;;4972669;28;20219;-76
2022/07/27 13:38:31;;;;;;;3.00;1.30;;;26.40;70.60;;;;;;4971302;28;20264;-75
2022/07/27 13:41:21;;;;;;;3.15;1.20;;;26.20;69.00;;;;;;4972801;28;20880;-75
2022/07/27 13:44:10;;;;;;;3.35;1.20;;;26.30;69.50;;;;;;4968988;28;20596;-74
2022/07/27 13:47:19;;;;;;;4.30;1.30;;;26.20;70.40;;;;;;4977827;28;20639;-77
2022/07/27 13:50:09;;;;;;;4.97;1.20;;;26.40;68.80;;;;;;4976238;28;20572;-77
2022/07/27 13:53:05;;;;;;;7.95;1.30;;;26.30;70.90;;;;;;4980795;28;20230;-79
2022/07/27 13:55:56;;;;;;;2.65;1.27;;;26.10;70.80;;;;;;4978446;28;20286;-75
2022/07/27 13:58:45;;;;;;;5.30;1.35;;;26.00;71.90;;;;;;4965775;28;20223;-73
2022/07/27 14:01:34;;;;;;;3.15;1.30;;;25.80;72.40;;;;;;4972849;28;20701;-74
2022/07/27 14:04:25;;;;;;;5.55;1.40;;;25.80;74.00;;;;;;4958937;28;20236;-74
2022/07/27 14:07:13;;;;;;;2.97;0.90;;;25.50;71.40;;;;;;4961466;28;20317;-75
2022/07/27 14:13:12;;;;;;;7.32;1.70;;;25.50;71.00;;;;;;4959393;28;20345;-75
2022/07/27 14:16:01;;;;;;;4.28;1.20;;;25.50;72.30;;;;;;4946755;28;20227;-74
2022/07/27 14:18:51;;;;;;;2.50;1.10;;;25.60;71.10;;;;;;4961183;28;20313;-74
2022/07/27 14:21:39;;;;;;;6.28;1.40;;;25.60;71.30;;;;;;4945851;28;20235;-73
2022/07/27 14:24:28;;;;;;;5.60;1.77;;;25.70;71.50;;;;;;4956043;28;20231;-74
2022/07/27 14:27:19;;;;;;;6.85;1.70;;;25.70;73.20;;;;;;4961068;28;20231;-75
2022/07/27 14:30:11;;;;;;;6.22;1.52;;;25.50;73.30;;;;;;4957866;28;20216;-76
2022/07/27 14:33:04;;;;;;;7.70;1.35;;;25.50;72.70;;;;;;4955922;28;20352;-75
2022/07/27 14:35:53;;;;;;;3.65;1.60;;;25.50;73.30;;;;;;4956454;28;20227;-76
2022/07/27 14:38:45;;;;;;;5.75;1.48;;;25.50;73.70;;;;;;4944867;28;20219;-79
2022/07/27 14:41:34;;;;;;;4.10;1.15;;;25.20;74.60;;;;;;4955973;28;20231;-78
2022/07/27 14:44:25;;;;;;;5.38;1.88;;;25.20;75.50;;;;;;4955830;28;21033;-78
2022/07/27 14:47:16;;;;;;;5.65;2.22;;;25.10;74.60;;;;;;4957206;28;20232;-77
2022/07/27 14:50:07;;;;;;;4.90;1.75;;;25.00;75.40;;;;;;4948715;28;20219;-78
2022/07/27 14:52:56;;;;;;;4.13;1.85;;;25.20;76.00;;;;;;4960101;28;20223;-79
2022/07/27 14:55:45;;;;;;;7.05;1.83;;;25.00;75.80;;;;;;4962791;28;20298;-80
2022/07/27 14:58:34;;;;;;;3.15;1.20;;;25.20;75.80;;;;;;4963657;28;20234;-80
2022/07/27 15:01:23;;;;;;;4.35;1.38;;;25.40;76.80;;;;;;4950143;28;20232;-80